Time,TemperatureF,DewpointF,PressureIn,WindDirection,WindDirectionDegrees,WindSpeedMPH,WindSpeedGustMPH,Humidity,HourlyPrecipIn,Conditions,Clouds,dailyrainin,SoftwareType,DateUTC
2013-08-14 00:01:00,61.2,61.2,26.72,SSW,211,0.0,2.0,100,0.00,,,-99.99,VWS V12.07,2013-08-14 04:01:00,
2013-08-14 00:31:00,61.5,61.5,26.72,West,279,0.0,3.0,100,0.00,,,-99.99,VWS V12.07,2013-08-14 04:31:00,
2013-08-14 01:01:00,61.2,61.2,26.72,West,263,1.0,1.0,100,0.00,,,-99.99,VWS V12.07,2013-08-14 05:01:00,
2013-08-14 01:31:00,60.4,60.4,26.72,SW,218,3.0,5.0,100,0.00,,,-99.99,VWS V12.07,2013-08-14 05:31:00,
2013-08-14 02:01:00,60.1,60.1,26.72,West,263,0.0,4.0,100,0.00,,,-99.99,VWS V12.07,2013-08-14 06:01:00,
2013-08-14 02:31:00,59.8,59.8,26.72,West,273,1.0,6.0,100,0.00,,,-99.99,VWS V12.07,2013-08-14 06:31:00,
2013-08-14 03:01:00,59.2,59.2,26.72,WNW,291,1.0,2.0,100,0.00,,,-99.99,VWS V12.07,2013-08-14 07:01:00,
2013-08-14 03:31:00,58.1,58.1,26.72,SW,235,2.0,6.0,100,0.00,,,-99.99,VWS V12.07,2013-08-14 07:31:00,
2013-08-14 04:01:00,58.0,58.0,26.71,SW,226,0.0,2.0,100,0.00,,,-99.99,VWS V12.07,2013-08-14 08:01:00,
2013-08-14 04:31:00,58.5,58.5,26.71,SSW,205,2.0,4.0,100,0.00,,,-99.99,VWS V12.07,2013-08-14 08:31:00,
2013-08-14 05:01:00,58.3,58.3,26.71,SW,215,1.0,2.0,100,0.00,,,-99.99,VWS V12.07,2013-08-14 09:01:00,
2013-08-14 05:31:00,58.0,58.0,26.72,SW,218,0.0,1.0,100,0.00,,,-99.99,VWS V12.07,2013-08-14 09:31:00,
2013-08-14 06:01:00,57.4,57.4,26.74,SW,218,2.0,2.0,100,0.00,,,-99.99,VWS V12.07,2013-08-14 10:01:00,
2013-08-14 06:31:00,57.7,57.7,26.75,West,269,4.0,6.0,100,0.00,,,-99.99,VWS V12.07,2013-08-14 10:31:00,
2013-08-14 07:01:00,59.1,59.1,26.75,West,259,1.0,5.0,100,0.00,,,-99.99,VWS V12.07,2013-08-14 11:01:00,
2013-08-14 07:31:00,60.6,59.8,26.76,West,270,2.0,4.0,97,0.00,,,-99.99,VWS V12.07,2013-08-14 11:31:00,
2013-08-14 08:04:00,61.7,58.7,26.77,SSW,205,3.0,9.0,90,0.00,,,-99.99,VWS V12.07,2013-08-14 12:04:00,
2013-08-14 08:32:00,63.1,60.1,26.77,WSW,238,1.0,4.0,90,0.00,,,-99.99,VWS V12.07,2013-08-14 12:32:00,
2013-08-14 09:01:00,63.3,60.3,26.78,SW,216,5.0,5.0,90,0.00,,,-99.99,VWS V12.07,2013-08-14 13:01:00,
2013-08-14 09:31:00,64.8,60.2,26.79,North,358,3.0,6.0,85,0.00,,,-99.99,VWS V12.07,2013-08-14 13:31:00,
2013-08-14 10:01:00,64.6,59.0,26.80,SSE,167,6.0,7.0,82,0.00,,,-99.99,VWS V12.07,2013-08-14 14:01:00,
2013-08-14 10:31:00,65.4,60.1,26.80,West,273,4.0,6.0,83,0.00,,,-99.99,VWS V12.07,2013-08-14 14:31:00,
2013-08-14 11:01:00,64.4,57.4,26.80,SSW,200,1.0,8.0,78,0.00,,,-99.99,VWS V12.07,2013-08-14 15:01:00,
2013-08-14 11:31:00,65.5,58.1,26.80,SSW,209,2.0,5.0,77,0.00,,,-99.99,VWS V12.07,2013-08-14 15:31:00,
2013-08-14 12:01:00,65.4,58.4,26.80,SSW,196,1.0,8.0,78,0.00,,,-99.99,VWS V12.07,2013-08-14 16:01:00,
2013-08-14 12:31:00,66.2,56.9,26.80,NW,316,4.0,6.0,72,0.00,,,-99.99,VWS V12.07,2013-08-14 16:31:00,
2013-08-14 13:01:00,66.7,57.8,26.80,SW,215,1.0,4.0,73,0.00,,,-99.99,VWS V12.07,2013-08-14 17:01:00,
2013-08-14 14:01:00,67.3,55.6,26.80,West,264,4.0,6.0,66,0.00,,,-99.99,VWS V12.07,2013-08-14 18:01:00,
2013-08-14 14:31:00,66.3,56.2,26.79,WNW,290,4.0,7.0,70,0.00,,,-99.99,VWS V12.07,2013-08-14 18:31:00,
2013-08-14 15:01:00,68.1,58.0,26.80,SSW,199,3.0,4.0,70,0.00,,,-99.99,VWS V12.07,2013-08-14 19:01:00,
2013-08-14 16:01:00,66.8,57.1,26.79,NW,310,3.0,7.0,71,0.00,,,-99.99,VWS V12.07,2013-08-14 20:01:00,
2013-08-14 16:31:00,65.5,57.0,26.79,WNW,296,2.0,5.0,74,0.00,,,-99.99,VWS V12.07,2013-08-14 20:31:00,
2013-08-14 17:01:00,65.9,58.1,26.80,WNW,282,2.0,8.0,76,0.00,,,-99.99,VWS V12.07,2013-08-14 21:01:00,
2013-08-14 17:31:00,64.4,57.8,26.80,West,264,4.0,7.0,79,0.00,,,-99.99,VWS V12.07,2013-08-14 21:31:00,
2013-08-14 18:01:00,64.1,58.5,26.80,West,264,1.0,3.0,82,0.00,,,-99.99,VWS V12.07,2013-08-14 22:01:00,
2013-08-14 18:31:00,63.6,58.0,26.82,SW,230,2.0,5.0,82,0.00,,,-99.99,VWS V12.07,2013-08-14 22:31:00,
2013-08-14 19:01:00,62.1,57.5,26.82,SW,233,1.0,3.0,85,0.00,,,-99.99,VWS V12.07,2013-08-14 23:01:00,
2013-08-14 19:31:00,61.5,58.2,26.83,SW,230,0.0,1.0,89,0.00,,,-99.99,VWS V12.07,2013-08-14 23:31:00,
2013-08-14 20:01:00,59.5,56.9,26.83,SW,232,0.0,2.0,91,0.00,,,-99.99,VWS V12.07,2013-08-15 00:01:00,
2013-08-14 20:31:00,57.3,56.5,26.83,SW,232,0.0,0.0,97,0.00,,,-99.99,VWS V12.07,2013-08-15 00:31:00,
2013-08-14 21:01:00,56.3,56.3,26.85,SW,232,0.0,0.0,100,0.00,,,-99.99,VWS V12.07,2013-08-15 01:01:00,
2013-08-14 21:31:00,56.2,56.2,26.86,SW,232,0.0,1.0,100,0.00,,,-99.99,VWS V12.07,2013-08-15 01:31:00,
2013-08-14 22:01:00,55.5,55.5,26.86,SW,232,0.0,0.0,100,0.00,,,-99.99,VWS V12.07,2013-08-15 02:01:00,
2013-08-14 22:31:00,54.4,54.4,26.87,SW,232,0.0,2.0,100,0.00,,,-99.99,VWS V12.07,2013-08-15 02:31:00,
2013-08-14 23:01:00,53.3,53.3,26.88,SW,232,0.0,0.0,100,0.00,,,-99.99,VWS V12.07,2013-08-15 03:01:00,
2013-08-14 23:31:00,52.6,52.6,26.87,SW,232,0.0,0.0,100,0.00,,,-99.99,VWS V12.07,2013-08-15 03:31:00,